createdAt,value
2018-12-29T00:00:55.975Z,10.10
2018-12-29T00:03:26.276Z,10.70
2018-12-29T00:05:56.694Z,10.23
2018-12-29T00:08:27.044Z,10.97
2018-12-29T00:10:57.463Z,9.57
2018-12-29T00:13:27.841Z,11.33
2018-12-29T00:15:58.225Z,11.30
2018-12-29T00:18:28.560Z,11.13
2018-12-29T00:20:58.970Z,11.20
2018-12-29T00:23:29.307Z,10.83
2018-12-29T00:25:59.696Z,11.93
2018-12-29T00:28:30.112Z,11.17
2018-12-29T00:31:00.451Z,11.53
2018-12-29T00:33:30.846Z,10.37
2018-12-29T00:36:01.150Z,11.13
2018-12-29T00:38:31.496Z,11.50
2018-12-29T00:41:01.846Z,10.23
2018-12-29T00:43:32.188Z,9.73
2018-12-29T00:46:02.532Z,10.50
2018-12-29T00:48:32.968Z,10.63
2018-12-29T00:51:03.339Z,9.80
2018-12-29T00:53:33.798Z,10.07
2018-12-29T00:56:04.172Z,10.10
2018-12-29T00:58:34.580Z,9.47
2018-12-29T01:01:04.882Z,9.90
2018-12-29T01:03:35.231Z,9.73
2018-12-29T01:06:05.621Z,9.67
2018-12-29T01:08:35.974Z,9.97
2018-12-29T01:11:06.345Z,9.43
2018-12-29T01:13:36.681Z,9.77
2018-12-29T01:16:07.094Z,9.10
2018-12-29T01:18:37.457Z,9.13
2018-12-29T01:21:07.835Z,9.93
2018-12-29T01:23:38.247Z,10.00
2018-12-29T01:26:08.612Z,9.60
2018-12-29T01:28:38.948Z,10.13
2018-12-29T01:31:09.292Z,10.10
2018-12-29T01:33:39.593Z,9.87
2018-12-29T01:36:09.931Z,10.83
2018-12-29T01:38:40.312Z,10.20
2018-12-29T01:41:10.648Z,10.13
2018-12-29T01:43:41.028Z,10.10
2018-12-29T01:46:11.376Z,10.20
2018-12-29T01:48:41.679Z,9.10
2018-12-29T01:51:12.064Z,9.77
2018-12-29T01:53:48.323Z,9.80
2018-12-29T01:56:18.703Z,10.17
2018-12-29T01:58:49.081Z,9.90
2018-12-29T02:01:19.453Z,10.13
2018-12-29T02:03:49.840Z,9.97
2018-12-29T02:06:20.139Z,9.17
2018-12-29T02:08:50.440Z,9.90
2018-12-29T02:11:20.815Z,9.50
2018-12-29T02:13:51.181Z,9.87
2018-12-29T02:16:21.556Z,9.90
2018-12-29T02:18:51.926Z,9.60
2018-12-29T02:21:22.288Z,10.37
2018-12-29T02:23:52.711Z,9.77
2018-12-29T02:26:23.056Z,9.23
2018-12-29T02:28:53.422Z,9.50
2018-12-29T02:31:23.760Z,10.57
2018-12-29T02:33:54.102Z,9.50
2018-12-29T02:36:24.455Z,10.23
2018-12-29T02:38:54.750Z,10.20
2018-12-29T02:41:25.120Z,8.37
2018-12-29T02:43:55.416Z,6.93
2018-12-29T02:46:25.787Z,7.37
2018-12-29T02:48:56.122Z,7.33
2018-12-29T02:51:26.482Z,7.87
2018-12-29T02:53:56.882Z,7.23
2018-12-29T02:56:27.206Z,8.00
2018-12-29T02:58:57.571Z,7.60
2018-12-29T03:01:27.894Z,7.67
2018-12-29T03:03:58.231Z,7.63
2018-12-29T03:06:28.592Z,6.97
2018-12-29T03:08:58.997Z,6.73
2018-12-29T03:11:29.415Z,7.07
2018-12-29T03:13:59.779Z,6.93
2018-12-29T03:16:30.151Z,6.57
2018-12-29T03:19:00.559Z,6.93
2018-12-29T03:21:30.881Z,7.03
2018-12-29T03:24:01.203Z,7.37
2018-12-29T03:26:31.607Z,7.27
2018-12-29T03:29:01.969Z,6.77
2018-12-29T03:31:32.339Z,7.27
2018-12-29T03:34:02.641Z,7.03
2018-12-29T03:36:33.004Z,7.17
2018-12-29T03:39:04.491Z,6.50
2018-12-29T03:41:34.888Z,7.17
2018-12-29T03:44:05.217Z,7.70
2018-12-29T03:46:35.581Z,7.20
2018-12-29T03:49:05.909Z,7.80
2018-12-29T03:51:36.244Z,7.83
2018-12-29T03:54:06.613Z,7.63
2018-12-29T03:56:37.028Z,7.80
2018-12-29T03:59:07.390Z,8.17
2018-12-29T04:01:37.761Z,8.37
2018-12-29T04:04:08.127Z,8.07
2018-12-29T04:06:38.492Z,7.83
2018-12-29T04:09:33.157Z,8.10
2018-12-29T04:12:22.882Z,8.43
2018-12-29T04:14:53.253Z,7.90
2018-12-29T04:17:23.752Z,7.90
2018-12-29T04:19:54.165Z,8.17
2018-12-29T04:22:24.535Z,8.40
2018-12-29T04:24:54.957Z,9.00
2018-12-29T04:27:25.288Z,8.70
2018-12-29T04:29:55.631Z,9.07
2018-12-29T04:32:25.969Z,8.80
2018-12-29T04:34:56.305Z,8.80
2018-12-29T04:37:26.642Z,9.33
2018-12-29T04:39:56.947Z,8.90
2018-12-29T04:42:27.321Z,9.50
2018-12-29T04:44:57.646Z,8.97
2018-12-29T04:47:27.985Z,8.73
2018-12-29T04:49:58.287Z,9.10
2018-12-29T04:52:28.659Z,8.33
2018-12-29T04:54:59.052Z,9.07
2018-12-29T04:57:29.398Z,9.07
2018-12-29T04:59:59.724Z,8.73
2018-12-29T05:02:30.123Z,8.20
2018-12-29T05:05:00.491Z,9.20
2018-12-29T05:07:30.860Z,8.30
2018-12-29T05:10:01.312Z,8.47
2018-12-29T05:12:31.674Z,9.53
2018-12-29T05:15:02.003Z,9.17
2018-12-29T05:17:32.308Z,9.30
2018-12-29T05:20:02.649Z,9.03
2018-12-29T05:22:33.059Z,8.53
2018-12-29T05:25:03.388Z,8.93
2018-12-29T05:27:33.790Z,8.80
2018-12-29T05:30:04.417Z,8.70
2018-12-29T05:32:34.779Z,8.40
2018-12-29T05:35:05.193Z,9.07
2018-12-29T05:37:35.489Z,8.60
2018-12-29T05:40:05.849Z,8.57
2018-12-29T05:42:36.180Z,8.87
2018-12-29T05:45:06.694Z,8.53
2018-12-29T05:47:37.023Z,7.83
2018-12-29T05:50:07.414Z,7.80
2018-12-29T05:52:37.797Z,7.47
2018-12-29T05:55:08.196Z,6.83
2018-12-29T05:57:38.567Z,6.40
2018-12-29T06:00:09.114Z,6.90
2018-12-29T06:02:39.456Z,6.90
2018-12-29T06:05:09.838Z,6.67
2018-12-29T06:07:40.235Z,6.97
2018-12-29T06:10:10.721Z,6.70
2018-12-29T06:12:41.073Z,6.20
2018-12-29T06:15:11.409Z,6.90
2018-12-29T06:17:41.788Z,6.80
2018-12-29T06:20:12.115Z,7.13
2018-12-29T06:22:42.484Z,7.30
2018-12-29T06:25:12.907Z,7.13
2018-12-29T06:27:43.343Z,7.27
2018-12-29T06:30:13.775Z,7.67
2018-12-29T06:32:44.131Z,7.60
2018-12-29T06:35:14.554Z,7.10
2018-12-29T06:37:44.894Z,7.70
2018-12-29T06:40:15.231Z,7.20
2018-12-29T06:42:45.557Z,7.73
2018-12-29T06:45:15.880Z,7.40
2018-12-29T06:47:46.220Z,6.97
2018-12-29T06:50:16.513Z,7.03
2018-12-29T06:52:46.875Z,6.97
2018-12-29T06:55:17.203Z,7.17
2018-12-29T06:57:47.613Z,7.13
2018-12-29T07:00:17.979Z,6.87
2018-12-29T07:02:48.329Z,6.67
2018-12-29T07:05:18.737Z,6.93
2018-12-29T07:07:49.060Z,7.67
2018-12-29T07:10:19.431Z,7.87
2018-12-29T07:12:49.740Z,7.47
2018-12-29T07:15:20.087Z,7.00
2018-12-29T07:17:50.418Z,7.27
2018-12-29T07:20:20.755Z,7.17
2018-12-29T07:22:51.112Z,7.43
2018-12-29T07:25:21.518Z,6.80
2018-12-29T07:27:51.892Z,7.00
2018-12-29T07:30:22.214Z,7.80
2018-12-29T07:32:52.556Z,8.17
2018-12-29T07:35:22.890Z,7.67
2018-12-29T07:37:53.217Z,7.57
2018-12-29T07:40:23.515Z,7.53
2018-12-29T07:42:54.000Z,7.80
2018-12-29T07:45:24.331Z,7.70
2018-12-29T07:47:54.668Z,8.30
2018-12-29T07:50:24.999Z,7.47
2018-12-29T07:52:55.407Z,7.67
2018-12-29T07:55:25.768Z,8.03
2018-12-29T07:57:56.097Z,7.70
2018-12-29T08:00:27.435Z,7.30
2018-12-29T08:02:57.882Z,8.27
2018-12-29T08:05:28.216Z,7.73
2018-12-29T08:07:58.630Z,7.10
2018-12-29T08:10:28.993Z,7.90
2018-12-29T08:12:59.368Z,7.83
2018-12-29T08:15:29.789Z,8.17
2018-12-29T08:18:00.202Z,7.97
2018-12-29T08:20:30.536Z,6.87
2018-12-29T08:23:00.843Z,7.43
2018-12-29T08:25:31.215Z,8.43
2018-12-29T08:28:01.544Z,7.60
2018-12-29T08:30:31.883Z,7.70
2018-12-29T08:33:02.218Z,7.77
2018-12-29T08:35:32.542Z,7.70
2018-12-29T08:38:02.870Z,7.03
2018-12-29T08:40:33.219Z,7.30
2018-12-29T08:43:03.590Z,7.67
2018-12-29T08:45:33.964Z,8.17
2018-12-29T08:48:04.377Z,7.50
2018-12-29T08:50:34.736Z,7.47
2018-12-29T08:53:05.145Z,8.30
2018-12-29T08:55:35.496Z,8.53
2018-12-29T08:58:05.878Z,8.63
2018-12-29T09:00:36.171Z,8.33
2018-12-29T09:03:06.512Z,8.67
2018-12-29T09:05:36.844Z,8.87
2018-12-29T09:08:07.221Z,8.67
2018-12-29T09:10:37.595Z,9.87
2018-12-29T09:13:07.963Z,8.17
2018-12-29T09:15:39.270Z,7.80
2018-12-29T09:18:09.683Z,8.73
2018-12-29T09:20:40.064Z,8.47
2018-12-29T09:23:10.399Z,8.13
2018-12-29T09:25:40.802Z,8.17
2018-12-29T09:28:11.141Z,8.40
2018-12-29T09:30:41.583Z,8.27
2018-12-29T09:33:11.929Z,8.43
2018-12-29T09:35:42.248Z,8.33
2018-12-29T09:38:12.592Z,8.63
2018-12-29T09:40:42.936Z,7.93
2018-12-29T09:43:13.340Z,8.07
2018-12-29T09:45:43.675Z,7.80
2018-12-29T09:48:14.002Z,7.50
2018-12-29T09:50:44.402Z,8.57
2018-12-29T09:53:14.760Z,7.57
2018-12-29T09:55:45.135Z,10.67
2018-12-29T09:58:15.500Z,9.57
2018-12-29T10:00:45.884Z,8.40
2018-12-29T10:03:16.211Z,8.50
2018-12-29T10:05:46.502Z,7.47
2018-12-29T10:08:16.837Z,7.20
2018-12-29T10:10:47.214Z,7.17
2018-12-29T10:13:17.549Z,7.13
2018-12-29T10:15:47.927Z,7.40
2018-12-29T10:18:18.262Z,7.87
2018-12-29T10:20:48.635Z,7.67
2018-12-29T10:23:19.143Z,7.87
2018-12-29T10:25:49.476Z,8.23
2018-12-29T10:28:19.843Z,8.97
2018-12-29T10:30:50.175Z,8.33
2018-12-29T10:33:20.542Z,8.93
2018-12-29T10:35:50.907Z,8.37
2018-12-29T10:38:21.275Z,8.30
2018-12-29T10:40:51.637Z,8.40
2018-12-29T10:43:22.054Z,7.53
2018-12-29T10:45:52.428Z,8.07
2018-12-29T10:48:22.831Z,7.70
2018-12-29T10:50:53.162Z,7.47
2018-12-29T10:53:23.534Z,7.90
2018-12-29T10:55:53.910Z,7.13
2018-12-29T10:58:24.398Z,8.00
2018-12-29T11:00:54.758Z,8.63
2018-12-29T11:03:25.093Z,7.47
2018-12-29T11:05:55.424Z,8.50
2018-12-29T11:08:25.777Z,9.70
2018-12-29T11:10:56.078Z,10.37
2018-12-29T11:13:26.423Z,9.23
2018-12-29T11:15:56.814Z,7.60
2018-12-29T11:18:27.162Z,7.33
2018-12-29T11:20:57.526Z,7.83
2018-12-29T11:23:27.896Z,6.53
2018-12-29T11:25:58.309Z,7.67
2018-12-29T11:28:28.680Z,7.00
2018-12-29T11:30:59.041Z,7.13
2018-12-29T11:33:29.406Z,6.67
2018-12-29T11:35:59.778Z,8.27
2018-12-29T11:38:30.111Z,7.83
2018-12-29T11:41:00.456Z,7.30
2018-12-29T11:43:30.846Z,7.50
2018-12-29T11:46:01.219Z,7.33
2018-12-29T11:48:31.585Z,7.40
2018-12-29T11:51:02.054Z,7.13
2018-12-29T11:53:32.735Z,6.93
2018-12-29T11:56:03.097Z,7.53
2018-12-29T11:58:33.473Z,7.60
2018-12-29T12:01:03.764Z,7.47
2018-12-29T12:03:34.116Z,8.27
2018-12-29T12:06:04.484Z,8.53
2018-12-29T12:08:34.773Z,7.87
2018-12-29T12:11:05.156Z,7.50
2018-12-29T12:13:35.542Z,7.10
2018-12-29T12:16:05.921Z,7.03
2018-12-29T12:18:36.217Z,6.87
2018-12-29T12:21:06.615Z,7.80
2018-12-29T12:23:37.005Z,7.93
2018-12-29T12:26:07.648Z,8.47
2018-12-29T12:28:38.133Z,7.73
2018-12-29T12:31:08.537Z,8.10
2018-12-29T12:33:38.904Z,8.23
2018-12-29T12:36:09.291Z,10.67
2018-12-29T12:38:39.655Z,8.57
2018-12-29T12:41:10.030Z,8.90
2018-12-29T12:43:40.361Z,8.90
2018-12-29T12:46:10.972Z,9.00
2018-12-29T12:48:41.305Z,8.53
2018-12-29T12:51:11.658Z,8.93
2018-12-29T12:53:41.993Z,8.80
2018-12-29T12:56:12.327Z,8.73
2018-12-29T12:58:42.664Z,8.47
2018-12-29T13:01:13.382Z,9.17
2018-12-29T13:03:43.748Z,8.80
2018-12-29T13:06:14.119Z,8.20
2018-12-29T13:08:44.534Z,8.70
2018-12-29T13:11:15.003Z,8.33
2018-12-29T13:13:45.539Z,8.23
2018-12-29T13:16:15.914Z,8.93
2018-12-29T13:18:46.293Z,7.50
2018-12-29T13:21:16.629Z,7.63
2018-12-29T13:23:46.919Z,6.77
2018-12-29T13:26:17.288Z,6.13
2018-12-29T13:28:47.620Z,5.23
2018-12-29T13:31:17.990Z,6.10
2018-12-29T13:33:48.317Z,6.50
2018-12-29T13:36:18.658Z,6.33
2018-12-29T13:38:48.993Z,5.93
2018-12-29T13:41:19.363Z,6.50
2018-12-29T13:43:49.763Z,6.80
2018-12-29T13:46:20.426Z,6.30
2018-12-29T13:48:50.803Z,6.50
2018-12-29T13:51:21.141Z,7.13
2018-12-29T13:53:51.469Z,6.50
2018-12-29T13:56:21.801Z,6.90
2018-12-29T13:58:52.129Z,6.70
2018-12-29T14:01:22.529Z,6.60
2018-12-29T14:03:52.924Z,7.17
2018-12-29T14:06:23.250Z,6.33
2018-12-29T14:08:53.578Z,6.17
2018-12-29T14:11:23.950Z,5.63
2018-12-29T14:13:54.278Z,6.40
2018-12-29T14:16:24.690Z,6.97
2018-12-29T14:18:55.481Z,6.57
2018-12-29T14:21:25.899Z,7.50
2018-12-29T14:23:56.262Z,8.93
2018-12-29T14:26:26.563Z,10.43
2018-12-29T14:28:56.905Z,8.83
2018-12-29T14:31:27.201Z,8.40
2018-12-29T14:33:57.551Z,7.93
2018-12-29T14:36:27.886Z,8.20
2018-12-29T14:38:58.232Z,8.27
2018-12-29T14:41:28.727Z,7.77
2018-12-29T14:43:59.090Z,7.83
2018-12-29T14:46:29.462Z,7.47
2018-12-29T14:48:59.833Z,8.27
2018-12-29T14:51:30.552Z,7.73
2018-12-29T14:54:00.882Z,8.17
2018-12-29T14:56:31.221Z,8.77
2018-12-29T14:59:01.602Z,8.90
2018-12-29T15:01:32.016Z,9.60
2018-12-29T15:04:02.410Z,8.40
2018-12-29T15:06:32.774Z,9.87
2018-12-29T15:09:04.769Z,8.53
2018-12-29T15:11:35.138Z,8.90
2018-12-29T15:14:05.464Z,8.50
2018-12-29T15:16:36.061Z,8.50
2018-12-29T15:19:06.437Z,8.50
2018-12-29T15:21:37.105Z,7.37
2018-12-29T15:24:08.989Z,8.10
2018-12-29T15:26:39.372Z,8.40
2018-12-29T15:29:10.018Z,8.20
2018-12-29T15:31:40.374Z,8.83
2018-12-29T15:34:10.701Z,7.77
2018-12-29T15:36:41.173Z,8.23
2018-12-29T15:39:11.477Z,7.97
2018-12-29T15:41:41.801Z,8.20
2018-12-29T15:44:12.196Z,8.80
2018-12-29T15:46:42.557Z,8.70
2018-12-29T15:49:12.922Z,7.63
2018-12-29T15:51:43.417Z,7.33
2018-12-29T15:54:13.825Z,7.80
2018-12-29T15:56:44.152Z,7.73
2018-12-29T15:59:14.495Z,8.20
2018-12-29T16:01:44.872Z,7.90
2018-12-29T16:04:15.194Z,7.57
2018-12-29T16:06:45.602Z,8.27
2018-12-29T16:09:15.971Z,8.23
2018-12-29T16:11:46.644Z,8.33
2018-12-29T16:14:17.017Z,8.27
2018-12-29T16:16:47.667Z,8.30
2018-12-29T16:19:18.038Z,8.30
2018-12-29T16:21:48.450Z,7.90
2018-12-29T16:24:18.967Z,8.30
2018-12-29T16:26:49.307Z,8.17
2018-12-29T16:29:19.598Z,8.30
2018-12-29T16:31:49.931Z,8.47
2018-12-29T16:34:20.303Z,8.13
2018-12-29T16:36:50.658Z,7.67
2018-12-29T16:39:21.028Z,7.93
2018-12-29T16:41:51.441Z,7.33
2018-12-29T16:44:21.842Z,7.97
2018-12-29T16:46:52.393Z,8.57
2018-12-29T16:49:22.723Z,8.60
2018-12-29T16:51:53.092Z,8.00
2018-12-29T16:54:23.470Z,8.27
2018-12-29T16:56:53.832Z,8.03
2018-12-29T16:59:24.409Z,7.47
2018-12-29T17:01:54.736Z,8.37
2018-12-29T17:04:25.109Z,8.10
2018-12-29T17:06:55.446Z,6.80
2018-12-29T17:09:26.028Z,7.40
2018-12-29T17:11:56.331Z,7.27
2018-12-29T17:14:26.633Z,7.37
2018-12-29T17:16:57.005Z,7.23
2018-12-29T17:19:27.367Z,7.70
2018-12-29T17:21:57.766Z,7.43
2018-12-29T17:24:28.178Z,7.60
2018-12-29T17:26:58.924Z,7.47
2018-12-29T17:29:29.336Z,7.33
2018-12-29T17:31:59.706Z,7.20
2018-12-29T17:34:30.082Z,6.23
2018-12-29T17:37:00.535Z,5.90
2018-12-29T17:39:30.891Z,6.20
2018-12-29T17:42:01.213Z,6.60
2018-12-29T17:44:31.544Z,7.00
2018-12-29T17:47:01.917Z,6.30
2018-12-29T17:49:32.251Z,6.50
2018-12-29T17:52:02.866Z,6.43
2018-12-29T17:54:33.168Z,6.40
2018-12-29T17:57:03.549Z,6.17
2018-12-29T17:59:33.836Z,6.50
2018-12-29T18:02:04.266Z,6.37
2018-12-29T18:04:34.923Z,6.63
2018-12-29T18:07:05.325Z,6.60
2018-12-29T18:09:35.648Z,6.17
2018-12-29T18:12:06.036Z,6.60
2018-12-29T18:14:36.357Z,6.73
2018-12-29T18:17:06.694Z,6.03
2018-12-29T18:19:37.027Z,7.13
2018-12-29T18:22:07.612Z,6.90
2018-12-29T18:24:37.981Z,5.90
2018-12-29T18:27:08.353Z,6.20
2018-12-29T18:29:38.754Z,6.40
2018-12-29T18:32:09.123Z,7.00
2018-12-29T18:34:39.697Z,6.80
2018-12-29T18:37:10.030Z,7.23
2018-12-29T18:39:40.403Z,6.67
2018-12-29T18:42:10.696Z,7.23
2018-12-29T18:44:41.028Z,7.33
2018-12-29T18:47:11.352Z,8.17
2018-12-29T18:49:41.695Z,8.10
2018-12-29T18:52:12.077Z,8.00
2018-12-29T18:54:42.458Z,7.60
2018-12-29T18:57:12.745Z,7.20
2018-12-29T18:59:43.076Z,7.60
2018-12-29T19:02:13.410Z,7.60
2018-12-29T19:04:44.198Z,7.97
2018-12-29T19:07:14.535Z,8.03
2018-12-29T19:09:45.856Z,8.50
2018-12-29T19:12:16.413Z,8.30
2018-12-29T19:14:46.794Z,8.83
2018-12-29T19:17:17.296Z,8.93
2018-12-29T19:19:47.716Z,8.27
2018-12-29T19:22:18.125Z,8.10
2018-12-29T19:24:48.527Z,8.50
2018-12-29T19:27:18.865Z,8.33
2018-12-29T19:29:49.197Z,8.03
2018-12-29T19:32:19.887Z,7.77
2018-12-29T19:34:50.490Z,7.87
2018-12-29T19:37:20.901Z,8.07
2018-12-29T19:39:51.262Z,8.73
2018-12-29T19:42:21.634Z,8.07
2018-12-29T19:44:52.196Z,8.30
2018-12-29T19:47:22.500Z,8.77
2018-12-29T19:49:53.827Z,8.47
2018-12-29T19:52:24.345Z,8.77
2018-12-29T19:54:54.643Z,8.13
2018-12-29T19:57:25.290Z,8.57
2018-12-29T19:59:55.617Z,8.47
2018-12-29T20:02:26.396Z,8.50
2018-12-29T20:04:57.472Z,8.90
2018-12-29T20:07:28.005Z,8.50
2018-12-29T20:09:58.363Z,8.67
2018-12-29T20:12:28.689Z,7.60
2018-12-29T20:14:59.022Z,7.63
2018-12-29T20:17:34.963Z,7.40
2018-12-29T20:20:01.847Z,6.70
2018-12-29T20:22:32.368Z,6.37
2018-12-29T20:25:02.733Z,6.47
2018-12-29T20:27:33.131Z,6.77
2018-12-29T20:30:03.910Z,6.73
2018-12-29T20:32:34.273Z,6.77
2018-12-29T20:35:04.705Z,6.80
2018-12-29T20:37:35.190Z,7.00
2018-12-29T20:40:06.428Z,6.53
2018-12-29T20:42:36.765Z,6.67
2018-12-29T20:45:07.352Z,7.30
2018-12-29T20:47:37.715Z,7.00
2018-12-29T20:50:09.641Z,7.37
2018-12-29T20:52:40.997Z,7.20
2018-12-29T20:55:11.326Z,7.67
2018-12-29T20:57:41.655Z,6.93
2018-12-29T21:00:12.123Z,6.37
2018-12-29T21:02:42.485Z,6.40
2018-12-29T21:05:13.081Z,6.57
2018-12-29T21:07:43.487Z,6.73
2018-12-29T21:10:13.889Z,7.10
2018-12-29T21:12:44.295Z,6.23
2018-12-29T21:15:14.653Z,6.60
2018-12-29T21:17:45.153Z,6.83
2018-12-29T21:20:17.532Z,7.07
2018-12-29T21:22:47.605Z,7.70
2018-12-29T21:25:17.969Z,7.63
2018-12-29T21:27:48.327Z,6.80
2018-12-29T21:30:18.692Z,7.57
2018-12-29T21:32:49.143Z,7.57
2018-12-29T21:35:19.537Z,7.00
2018-12-29T21:37:49.903Z,7.70
2018-12-29T21:40:20.259Z,7.40
2018-12-29T21:42:50.557Z,6.93
2018-12-29T21:45:20.884Z,7.30
2018-12-29T21:47:51.218Z,7.30
2018-12-29T21:50:25.305Z,7.43
2018-12-29T21:52:53.592Z,7.37
2018-12-29T21:55:23.954Z,6.83
2018-12-29T21:57:54.246Z,7.33
2018-12-29T22:00:24.613Z,7.17
2018-12-29T22:02:54.970Z,7.90
2018-12-29T22:05:25.647Z,7.30
2018-12-29T22:07:56.010Z,7.80
2018-12-29T22:10:26.373Z,7.90
2018-12-29T22:12:56.730Z,7.87
2018-12-29T22:15:27.094Z,7.50
2018-12-29T22:17:57.731Z,7.03
2018-12-29T22:20:33.228Z,7.03
2018-12-29T22:23:00.150Z,7.50
2018-12-29T22:25:30.534Z,7.17
2018-12-29T22:28:00.885Z,6.77
2018-12-29T22:30:31.209Z,7.27
2018-12-29T22:33:01.572Z,7.10
2018-12-29T22:35:31.907Z,7.30
2018-12-29T22:38:02.310Z,8.00
2018-12-29T22:40:32.671Z,7.70
2018-12-29T22:43:03.364Z,7.90
2018-12-29T22:45:33.729Z,8.00
2018-12-29T22:48:04.017Z,7.93
2018-12-29T22:50:40.859Z,7.97
2018-12-29T22:53:06.411Z,9.00
2018-12-29T22:55:36.710Z,8.53
2018-12-29T22:58:08.760Z,8.20
2018-12-29T23:00:40.553Z,7.73
2018-12-29T23:03:11.000Z,8.03
2018-12-29T23:05:41.327Z,7.47
2018-12-29T23:08:11.730Z,7.53
2018-12-29T23:10:42.224Z,7.90
2018-12-29T23:13:12.544Z,8.17
2018-12-29T23:15:42.924Z,7.80
2018-12-29T23:18:13.330Z,7.37
2018-12-29T23:20:48.969Z,7.53
2018-12-29T23:23:15.920Z,7.77
2018-12-29T23:25:46.629Z,7.40
2018-12-29T23:28:17.032Z,7.70
2018-12-29T23:30:47.425Z,8.27
2018-12-29T23:33:17.805Z,7.57
2018-12-29T23:35:48.207Z,7.33
2018-12-29T23:38:18.606Z,6.70
2018-12-29T23:40:48.970Z,7.83
2018-12-29T23:43:19.299Z,8.10
2018-12-29T23:45:49.771Z,8.43
2018-12-29T23:48:20.142Z,7.60
2018-12-29T23:51:05.121Z,8.00
2018-12-29T23:53:22.486Z,6.97
2018-12-29T23:55:53.026Z,6.57
2018-12-29T23:58:23.322Z,6.60
